Time;durP1;ratioP1;P1;durP2;ratioP2;P2;SDS_P1;SDS_P2;PMS_P1;PMS_P2;Temp;Humidity;BMP_temperature;BMP_pressure;BME280_temperature;BME280_humidity;BME280_pressure;Samples;Min_cycle;Max_cycle;Signal;HPM_P1;HPM_P2
2023/04/25 00:00:17;;;;;;;12.75;4.47;;;6.20;99.90;;;;;;5006675;28;20049;-65
2023/04/25 00:02:44;;;;;;;16.60;4.85;;;6.20;99.90;;;;;;4974272;28;20055;-65
2023/04/25 00:05:10;;;;;;;13.90;5.40;;;6.20;99.90;;;;;;4974103;28;20057;-65
2023/04/25 00:07:36;;;;;;;14.35;3.35;;;6.10;99.90;;;;;;4974561;28;20113;-64
2023/04/25 00:10:03;;;;;;;16.85;3.88;;;6.00;99.90;;;;;;4974110;28;20110;-65
2023/04/25 00:12:30;;;;;;;12.48;3.80;;;6.10;99.90;;;;;;4991231;28;20164;-64
2023/04/25 00:14:59;;;;;;;14.00;4.10;;;6.10;99.90;;;;;;4990627;28;20101;-64
2023/04/25 00:17:26;;;;;;;20.63;4.88;;;6.00;99.90;;;;;;4990192;28;20074;-64
2023/04/25 00:19:52;;;;;;;12.75;4.20;;;6.00;99.90;;;;;;4990042;28;20078;-63
2023/04/25 00:22:19;;;;;;;13.25;4.18;;;5.90;99.90;;;;;;4973984;28;20153;-65
2023/04/25 00:24:45;;;;;;;13.43;3.78;;;5.90;99.90;;;;;;4974089;28;20435;-64
2023/04/25 00:27:11;;;;;;;11.38;3.92;;;5.90;99.90;;;;;;4973933;28;20375;-64
2023/04/25 00:29:37;;;;;;;15.85;3.70;;;6.00;99.90;;;;;;4974078;28;20057;-64
2023/04/25 00:32:04;;;;;;;10.18;3.42;;;5.90;99.90;;;;;;4990453;28;20141;-64
2023/04/25 00:34:30;;;;;;;11.93;4.15;;;5.90;99.90;;;;;;4990230;28;20157;-65
2023/04/25 00:36:56;;;;;;;12.10;4.18;;;5.90;99.90;;;;;;4989670;28;20078;-64
2023/04/25 00:39:22;;;;;;;13.20;3.60;;;5.80;99.90;;;;;;4991225;28;20465;-64
2023/04/25 00:41:53;;;;;;;11.57;3.60;;;5.80;99.90;;;;;;4976998;28;20046;-64
2023/04/25 00:44:19;;;;;;;12.02;3.72;;;5.80;99.90;;;;;;4973771;28;20042;-64
2023/04/25 00:46:48;;;;;;;14.05;3.65;;;5.80;99.90;;;;;;4973628;28;20151;-64
2023/04/25 00:49:16;;;;;;;8.57;3.60;;;5.80;99.90;;;;;;4991167;28;20065;-64
2023/04/25 00:51:44;;;;;;;13.18;3.80;;;5.80;99.90;;;;;;4984105;28;20065;-63
2023/04/25 00:54:15;;;;;;;13.20;3.85;;;5.90;99.90;;;;;;4989736;28;20493;-64
2023/04/25 00:56:41;;;;;;;10.77;3.22;;;5.90;99.90;;;;;;4989714;28;20058;-64
2023/04/25 00:59:09;;;;;;;12.23;3.60;;;5.90;99.90;;;;;;4989934;28;20097;-65
2023/04/25 01:01:37;;;;;;;13.25;3.63;;;5.90;99.90;;;;;;4990708;28;20089;-65
2023/04/25 01:04:03;;;;;;;12.98;3.45;;;5.90;99.90;;;;;;4991155;28;20125;-64
2023/04/25 01:06:31;;;;;;;9.68;3.60;;;5.90;99.90;;;;;;4973258;28;20050;-65
2023/04/25 01:08:58;;;;;;;13.30;3.42;;;5.90;99.90;;;;;;4973580;28;20054;-65
2023/04/25 01:11:25;;;;;;;11.75;3.63;;;5.90;99.90;;;;;;4974290;28;20389;-64
2023/04/25 01:13:51;;;;;;;12.75;3.60;;;6.00;99.90;;;;;;4990150;28;20046;-64
2023/04/25 01:16:17;;;;;;;17.30;4.45;;;6.00;99.90;;;;;;4973432;28;20058;-64
2023/04/25 01:18:44;;;;;;;16.60;4.45;;;6.00;99.90;;;;;;4991087;28;20114;-64
2023/04/25 01:21:12;;;;;;;10.85;3.65;;;6.00;99.90;;;;;;4990503;28;20078;-64
2023/04/25 01:23:40;;;;;;;12.77;3.88;;;6.10;99.90;;;;;;4988798;28;20135;-65
2023/04/25 01:26:10;;;;;;;12.73;3.97;;;6.00;99.90;;;;;;4989657;28;20435;-64
2023/04/25 01:28:37;;;;;;;10.50;3.92;;;6.00;99.90;;;;;;4989500;28;20114;-64
2023/04/25 01:31:05;;;;;;;10.68;4.55;;;5.90;99.90;;;;;;4990367;28;20058;-64
2023/04/25 01:33:31;;;;;;;10.80;4.03;;;5.90;99.90;;;;;;4972981;28;20090;-64
2023/04/25 01:35:58;;;;;;;11.10;4.35;;;5.90;99.90;;;;;;4972896;28;20185;-65
2023/04/25 01:38:24;;;;;;;16.20;4.18;;;5.90;99.90;;;;;;4973196;28;20331;-65
2023/04/25 01:40:51;;;;;;;11.85;4.03;;;5.90;99.90;;;;;;4990566;28;20347;-65
2023/04/25 01:43:18;;;;;;;14.35;4.18;;;5.90;99.90;;;;;;4990230;28;20073;-64
2023/04/25 01:45:44;;;;;;;9.55;4.63;;;5.90;99.90;;;;;;4973833;28;20490;-64
2023/04/25 01:48:12;;;;;;;13.48;4.22;;;6.00;99.90;;;;;;4973496;28;20137;-65
2023/04/25 01:50:40;;;;;;;10.50;3.58;;;5.90;99.90;;;;;;4993724;28;20324;-64
2023/04/25 01:53:06;;;;;;;10.65;3.30;;;6.00;99.90;;;;;;4992680;28;20089;-65
2023/04/25 01:55:33;;;;;;;10.07;3.63;;;6.00;99.90;;;;;;4993163;28;20347;-65
2023/04/25 01:58:00;;;;;;;8.98;3.50;;;6.10;99.90;;;;;;4994298;28;20054;-63
2023/04/25 02:00:26;;;;;;;14.40;3.33;;;6.00;99.90;;;;;;4991780;28;20142;-64
2023/04/25 02:02:53;;;;;;;15.07;4.97;;;6.10;99.90;;;;;;4992282;28;20054;-65
2023/04/25 02:05:20;;;;;;;13.45;3.97;;;6.00;99.90;;;;;;4992735;28;20046;-64
2023/04/25 02:07:47;;;;;;;11.45;3.97;;;6.10;99.90;;;;;;4992641;28;20050;-65
2023/04/25 02:10:13;;;;;;;15.00;4.75;;;6.20;99.90;;;;;;4993065;28;20080;-65
2023/04/25 02:12:40;;;;;;;11.80;3.13;;;6.20;99.90;;;;;;4975880;28;20054;-64
2023/04/25 02:15:06;;;;;;;14.63;4.57;;;6.20;99.90;;;;;;4976377;28;20097;-63
2023/04/25 02:17:33;;;;;;;12.88;3.65;;;6.20;99.90;;;;;;4987927;28;20082;-64
2023/04/25 02:19:59;;;;;;;9.90;3.53;;;6.20;99.90;;;;;;4992464;28;20446;-64
2023/04/25 02:22:26;;;;;;;11.68;3.92;;;6.20;99.90;;;;;;4991465;28;20124;-65
2023/04/25 02:24:54;;;;;;;11.50;4.00;;;6.20;99.90;;;;;;4992284;28;20097;-63
2023/04/25 02:27:21;;;;;;;9.98;3.85;;;6.20;99.90;;;;;;4993711;28;20054;-64
2023/04/25 02:29:47;;;;;;;8.88;3.30;;;6.10;99.90;;;;;;4992718;28;20050;-63
2023/04/25 02:32:13;;;;;;;11.40;2.83;;;6.20;99.90;;;;;;4977453;28;20335;-64
2023/04/25 02:34:39;;;;;;;16.60;4.07;;;6.00;99.90;;;;;;4976147;28;20089;-65
2023/04/25 02:37:06;;;;;;;10.07;3.20;;;6.10;99.90;;;;;;4975931;28;20543;-64
2023/04/25 02:39:32;;;;;;;7.88;2.60;;;6.10;99.90;;;;;;4976299;28;20505;-65
2023/04/25 02:41:58;;;;;;;9.48;3.70;;;6.10;99.90;;;;;;4992556;28;20438;-64
2023/04/25 02:44:24;;;;;;;8.57;3.47;;;6.10;99.90;;;;;;4992453;28;20094;-64
2023/04/25 02:46:51;;;;;;;16.17;4.10;;;6.00;99.90;;;;;;4991915;28;20046;-64
2023/04/25 02:49:17;;;;;;;10.63;3.45;;;6.00;99.90;;;;;;4992203;28;20133;-64
2023/04/25 02:51:43;;;;;;;6.10;2.25;;;6.00;99.90;;;;;;4992699;28;20415;-64
2023/04/25 02:54:09;;;;;;;10.20;3.03;;;6.10;99.90;;;;;;4975772;28;20108;-64
2023/04/25 02:56:35;;;;;;;9.48;3.05;;;6.00;99.90;;;;;;4975717;28;20183;-63
2023/04/25 02:59:02;;;;;;;9.60;3.05;;;6.10;99.90;;;;;;4975802;28;20065;-64
2023/04/25 03:01:28;;;;;;;12.23;2.45;;;6.00;99.90;;;;;;4966546;28;20054;-64
2023/04/25 03:03:54;;;;;;;12.02;3.35;;;6.00;99.90;;;;;;4991874;28;20054;-64
2023/04/25 03:06:20;;;;;;;6.35;2.72;;;6.00;99.90;;;;;;4991734;28;20046;-65
2023/04/25 03:08:47;;;;;;;8.23;2.58;;;6.00;99.90;;;;;;4993026;28;20482;-64
2023/04/25 03:11:13;;;;;;;14.20;3.28;;;6.00;99.90;;;;;;4993143;28;20205;-64
2023/04/25 03:13:39;;;;;;;11.45;2.45;;;5.90;99.90;;;;;;4975211;28;20089;-64
2023/04/25 03:16:05;;;;;;;8.50;2.42;;;5.90;99.90;;;;;;4975190;28;20097;-64
2023/04/25 03:18:32;;;;;;;9.55;2.58;;;6.00;99.90;;;;;;4975563;28;20086;-64
2023/04/25 03:20:58;;;;;;;9.88;2.78;;;5.90;99.90;;;;;;4978758;28;20050;-64
2023/04/25 03:23:24;;;;;;;9.00;2.80;;;5.90;99.90;;;;;;4990855;28;20054;-64
2023/04/25 03:25:51;;;;;;;9.13;2.40;;;6.00;99.90;;;;;;4991392;28;20637;-64
2023/04/25 03:28:17;;;;;;;10.85;2.92;;;5.90;99.90;;;;;;4991767;28;20085;-64
2023/04/25 03:30:43;;;;;;;7.53;2.67;;;5.90;99.90;;;;;;4992628;28;20053;-64
2023/04/25 03:33:09;;;;;;;7.18;2.72;;;5.90;99.90;;;;;;4974694;28;20160;-64
2023/04/25 03:35:36;;;;;;;7.47;3.00;;;5.90;99.90;;;;;;4992058;28;20407;-64
2023/04/25 03:38:02;;;;;;;7.95;2.85;;;5.80;99.90;;;;;;4974455;28;20703;-64
2023/04/25 03:40:28;;;;;;;8.05;2.10;;;5.80;99.90;;;;;;4974746;28;20058;-64
2023/04/25 03:42:54;;;;;;;8.20;1.98;;;5.80;99.90;;;;;;4990289;28;20077;-63
2023/04/25 03:45:21;;;;;;;9.13;2.60;;;5.80;99.90;;;;;;4990813;28;20050;-63
2023/04/25 03:47:47;;;;;;;6.68;2.00;;;5.80;99.90;;;;;;4990941;28;20153;-63
2023/04/25 03:50:13;;;;;;;8.00;2.50;;;5.70;99.90;;;;;;4990506;28;20082;-64
2023/04/25 03:52:39;;;;;;;8.02;2.45;;;5.80;99.90;;;;;;4974411;28;20050;-64
2023/04/25 03:55:06;;;;;;;6.90;2.50;;;5.70;99.90;;;;;;4974321;28;20086;-63
2023/04/25 03:57:32;;;;;;;7.40;2.03;;;5.70;99.90;;;;;;4974587;28;20137;-63
2023/04/25 03:59:59;;;;;;;10.05;2.60;;;5.70;99.90;;;;;;4974328;28;20442;-63
2023/04/25 04:02:25;;;;;;;5.40;2.95;;;5.80;99.90;;;;;;4991092;28;20130;-65
2023/04/25 04:04:51;;;;;;;6.05;2.10;;;5.70;99.90;;;;;;4990712;28;20401;-64
2023/04/25 04:07:17;;;;;;;7.72;2.35;;;5.70;99.90;;;;;;4990742;28;20058;-64
2023/04/25 04:09:44;;;;;;;8.45;2.58;;;5.70;99.90;;;;;;4990557;28;20060;-63
2023/04/25 04:12:10;;;;;;;10.52;2.08;;;5.70;99.90;;;;;;4990467;28;20085;-64
2023/04/25 04:14:36;;;;;;;6.68;2.33;;;5.70;99.90;;;;;;4991607;28;20112;-64
2023/04/25 04:17:02;;;;;;;7.78;2.25;;;5.60;99.90;;;;;;4974250;28;20389;-64
2023/04/25 04:19:29;;;;;;;9.43;2.45;;;5.60;99.90;;;;;;4991390;28;20275;-64
2023/04/25 04:21:55;;;;;;;9.18;2.47;;;5.60;99.90;;;;;;4984661;28;20159;-64
2023/04/25 04:24:21;;;;;;;6.32;1.92;;;5.60;99.90;;;;;;4978916;28;20058;-63
2023/04/25 04:26:47;;;;;;;7.65;2.25;;;5.60;99.90;;;;;;4972152;28;20074;-64
2023/04/25 04:29:20;;;;;;;8.80;2.80;;;5.60;99.90;;;;;;4971926;28;20134;-63
2023/04/25 04:31:49;;;;;;;4.97;2.47;;;5.60;99.90;;;;;;4971092;28;20089;-64
2023/04/25 04:34:18;;;;;;;12.88;2.55;;;5.50;99.90;;;;;;4961894;28;20058;-63
2023/04/25 04:36:48;;;;;;;10.20;2.40;;;5.60;99.90;;;;;;4981309;28;20464;-64
2023/04/25 04:39:14;;;;;;;9.43;2.67;;;5.50;99.90;;;;;;4981080;28;20125;-65
2023/04/25 04:41:41;;;;;;;7.05;3.13;;;5.60;99.90;;;;;;4979409;28;20122;-63
2023/04/25 04:44:08;;;;;;;9.45;2.80;;;5.60;99.90;;;;;;4963695;28;20404;-64
2023/04/25 04:46:41;;;;;;;9.73;2.50;;;5.50;99.90;;;;;;4962796;28;20046;-65
2023/04/25 04:49:13;;;;;;;7.22;2.55;;;5.50;99.90;;;;;;4981411;28;20050;-63
2023/04/25 04:51:44;;;;;;;9.63;2.38;;;5.50;99.90;;;;;;4979015;28;20081;-64
2023/04/25 04:54:10;;;;;;;5.47;2.33;;;5.60;99.90;;;;;;4979998;28;20074;-64
2023/04/25 04:56:36;;;;;;;10.32;3.00;;;5.60;99.90;;;;;;4980553;28;20459;-64
2023/04/25 04:59:04;;;;;;;5.47;2.42;;;5.60;99.90;;;;;;4981229;28;20050;-64
2023/04/25 05:01:30;;;;;;;5.53;2.40;;;5.50;99.90;;;;;;4974589;28;20046;-63
2023/04/25 05:04:00;;;;;;;7.65;2.40;;;5.60;99.90;;;;;;4971257;28;20483;-63
2023/04/25 05:06:28;;;;;;;5.70;2.20;;;5.60;99.90;;;;;;4972642;28;20078;-64
2023/04/25 05:08:56;;;;;;;8.32;2.20;;;5.60;99.90;;;;;;4938961;28;20051;-65
2023/04/25 05:11:23;;;;;;;9.55;2.60;;;5.60;99.90;;;;;;4970917;28;20118;-64
2023/04/25 05:13:53;;;;;;;8.05;2.92;;;5.60;99.90;;;;;;4971332;28;20171;-64
2023/04/25 05:16:20;;;;;;;4.07;2.40;;;5.60;99.90;;;;;;4971326;28;20097;-63
2023/04/25 05:18:47;;;;;;;5.13;2.17;;;5.60;99.90;;;;;;4971525;28;20082;-64
2023/04/25 05:21:13;;;;;;;6.38;2.17;;;5.60;99.90;;;;;;4964337;28;20065;-64
2023/04/25 05:23:39;;;;;;;5.57;2.47;;;5.70;99.90;;;;;;4976341;28;20128;-63
2023/04/25 05:26:05;;;;;;;5.00;2.00;;;5.60;99.90;;;;;;4994494;28;20404;-64
2023/04/25 05:28:31;;;;;;;6.53;1.80;;;5.70;99.90;;;;;;4995051;28;20069;-63
2023/04/25 05:30:58;;;;;;;7.35;2.00;;;6.00;99.90;;;;;;4988591;28;20038;-62
2023/04/25 05:33:24;;;;;;;8.98;2.25;;;6.70;99.90;;;;;;4974980;28;20054;-63
2023/04/25 05:35:50;;;;;;;8.18;2.70;;;7.30;99.90;;;;;;4973961;28;20054;-64
2023/04/25 05:38:17;;;;;;;7.20;2.38;;;8.00;99.90;;;;;;4974996;28;20050;-63
2023/04/25 05:40:43;;;;;;;9.05;2.92;;;8.60;99.90;;;;;;4973302;28;20063;-64
2023/04/25 05:43:09;;;;;;;6.63;2.30;;;9.30;99.90;;;;;;4970898;28;20070;-64
2023/04/25 05:45:36;;;;;;;8.25;2.30;;;9.80;99.90;;;;;;4973693;28;20055;-63
2023/04/25 05:48:02;;;;;;;9.30;3.53;;;10.20;99.90;;;;;;4974327;28;20356;-63
2023/04/25 05:50:29;;;;;;;9.60;2.17;;;9.90;99.90;;;;;;4976673;28;20422;-64
2023/04/25 05:52:55;;;;;;;8.25;2.50;;;8.90;99.90;;;;;;4993846;28;20137;-63
2023/04/25 05:55:21;;;;;;;8.25;2.40;;;8.20;99.90;;;;;;4994476;28;20088;-64
2023/04/25 05:57:47;;;;;;;9.13;2.97;;;7.70;99.90;;;;;;4992374;28;20529;-64
2023/04/25 06:00:15;;;;;;;5.45;1.70;;;7.40;99.90;;;;;;4991224;28;20054;-63
2023/04/25 06:02:42;;;;;;;6.35;1.98;;;7.20;99.90;;;;;;4993157;28;20058;-62
2023/04/25 06:05:09;;;;;;;7.75;2.05;;;7.00;99.90;;;;;;4992932;28;20546;-63
2023/04/25 06:07:35;;;;;;;4.68;2.08;;;6.90;99.90;;;;;;4993748;28;20058;-64
2023/04/25 06:10:01;;;;;;;8.52;2.40;;;6.80;99.90;;;;;;4994011;28;20061;-64
2023/04/25 06:12:28;;;;;;;9.95;2.78;;;6.80;99.90;;;;;;4975360;28;20051;-62
2023/04/25 06:14:54;;;;;;;8.18;3.15;;;6.80;99.90;;;;;;4974356;28;20059;-64
2023/04/25 06:17:20;;;;;;;10.23;2.88;;;6.70;99.90;;;;;;4974243;28;20055;-63
2023/04/25 06:19:46;;;;;;;12.82;3.22;;;6.70;99.90;;;;;;4974065;28;20541;-63
2023/04/25 06:22:12;;;;;;;6.35;2.00;;;6.80;99.90;;;;;;4989256;28;20078;-63
2023/04/25 06:24:39;;;;;;;8.90;2.13;;;6.70;99.90;;;;;;4972463;28;20046;-62
2023/04/25 06:27:11;;;;;;;5.15;1.70;;;6.70;99.90;;;;;;4974109;28;20054;-62
2023/04/25 06:29:37;;;;;;;6.38;2.15;;;6.70;99.90;;;;;;4974135;28;20050;-63
2023/04/25 06:32:04;;;;;;;7.80;2.05;;;7.50;99.90;;;;;;4973709;28;20142;-63
2023/04/25 06:34:31;;;;;;;4.50;2.10;;;8.20;99.90;;;;;;4973964;28;20047;-62
2023/04/25 06:36:57;;;;;;;6.13;1.80;;;8.50;99.90;;;;;;4973239;28;20518;-64
2023/04/25 06:39:24;;;;;;;5.65;1.70;;;9.00;99.90;;;;;;4973931;28;20042;-63
2023/04/25 06:41:51;;;;;;;5.82;1.80;;;9.10;99.90;;;;;;4973313;28;20047;-63
2023/04/25 06:44:17;;;;;;;5.53;2.05;;;9.70;99.90;;;;;;4973901;28;20301;-63
2023/04/25 06:46:43;;;;;;;5.57;1.77;;;10.20;99.90;;;;;;4973993;28;20132;-63
2023/04/25 06:49:09;;;;;;;4.78;1.60;;;10.20;99.90;;;;;;4973607;28;20050;-62
2023/04/25 06:51:35;;;;;;;7.95;2.35;;;10.60;99.90;;;;;;4973048;28;20078;-64
2023/04/25 06:54:03;;;;;;;10.15;2.42;;;10.30;99.90;;;;;;4973752;28;20042;-62
2023/04/25 06:56:30;;;;;;;6.40;2.13;;;9.90;99.90;;;;;;4973879;28;20074;-63
2023/04/25 06:58:57;;;;;;;8.57;2.40;;;9.50;99.90;;;;;;4973472;28;20093;-64
2023/04/25 07:01:23;;;;;;;8.38;2.42;;;9.10;99.90;;;;;;4973258;28;20275;-62
2023/04/25 07:03:49;;;;;;;9.27;2.35;;;8.90;99.90;;;;;;4973818;28;20530;-62
2023/04/25 07:06:15;;;;;;;8.68;2.35;;;8.60;99.90;;;;;;4973722;28;20047;-63
2023/04/25 07:08:42;;;;;;;6.47;2.80;;;8.60;99.90;;;;;;4973631;28;20156;-64
2023/04/25 07:11:08;;;;;;;8.18;2.35;;;8.40;99.90;;;;;;4972986;28;20061;-64
2023/04/25 07:13:34;;;;;;;9.50;2.72;;;8.40;99.90;;;;;;4973772;28;20484;-63
2023/04/25 07:16:01;;;;;;;11.10;2.67;;;8.30;99.90;;;;;;4973306;28;20089;-62
2023/04/25 07:18:27;;;;;;;9.80;3.08;;;8.40;99.90;;;;;;4969523;28;20198;-63
2023/04/25 07:20:53;;;;;;;10.63;3.90;;;8.30;99.90;;;;;;4972532;28;20095;-64
2023/04/25 07:23:20;;;;;;;9.68;2.28;;;8.30;99.90;;;;;;4977039;28;20165;-63
2023/04/25 07:25:46;;;;;;;10.75;3.10;;;8.40;99.90;;;;;;5011079;28;20077;-64
2023/04/25 07:28:13;;;;;;;10.70;3.20;;;8.60;99.90;;;;;;5011023;28;20056;-64
2023/04/25 07:30:39;;;;;;;10.68;3.53;;;8.50;99.90;;;;;;5009260;28;20080;-63
2023/04/25 07:33:05;;;;;;;7.13;2.05;;;8.50;99.90;;;;;;4991770;28;20435;-63
2023/04/25 07:35:31;;;;;;;9.90;2.55;;;8.50;99.90;;;;;;4991986;28;20153;-63
2023/04/25 07:37:58;;;;;;;8.20;2.28;;;8.50;99.90;;;;;;4992588;28;20046;-63
2023/04/25 07:40:25;;;;;;;7.07;1.90;;;8.30;99.90;;;;;;4992705;28;20078;-64
2023/04/25 07:42:51;;;;;;;7.68;2.30;;;8.60;99.90;;;;;;5011396;28;20100;-63
2023/04/25 07:45:17;;;;;;;6.85;2.35;;;8.70;99.90;;;;;;5011769;28;20089;-65
2023/04/25 07:47:44;;;;;;;10.73;2.30;;;9.00;99.90;;;;;;5011084;28;20132;-63
2023/04/25 07:50:11;;;;;;;6.45;2.50;;;9.20;99.90;;;;;;5011555;28;20085;-63
2023/04/25 07:52:37;;;;;;;7.35;1.85;;;9.50;99.90;;;;;;4974881;28;20097;-64
2023/04/25 07:55:04;;;;;;;10.57;1.75;;;9.70;99.90;;;;;;4992179;28;20145;-64
2023/04/25 07:57:40;;;;;;;5.18;1.45;;;9.70;99.90;;;;;;4958730;28;20062;-65
2023/04/25 08:00:09;;;;;;;7.05;1.83;;;9.80;99.90;;;;;;4991917;28;20398;-63
2023/04/25 08:02:36;;;;;;;6.63;2.33;;;10.10;99.90;;;;;;5009349;28;20837;-63
2023/04/25 08:05:02;;;;;;;8.40;2.15;;;10.20;99.90;;;;;;5011427;28;20053;-63
2023/04/25 08:07:29;;;;;;;6.38;1.88;;;10.00;99.90;;;;;;5011472;28;20057;-64
2023/04/25 08:09:55;;;;;;;6.10;2.10;;;9.70;99.90;;;;;;5011658;28;20188;-63
2023/04/25 08:12:21;;;;;;;6.35;1.92;;;9.20;99.90;;;;;;4994646;28;20050;-64
2023/04/25 08:14:47;;;;;;;5.60;2.03;;;8.80;99.90;;;;;;4991752;28;20482;-63
2023/04/25 08:17:14;;;;;;;3.80;1.25;;;8.50;99.90;;;;;;4991884;28;20133;-63
2023/04/25 08:19:40;;;;;;;5.70;1.50;;;8.30;99.90;;;;;;4991822;28;20046;-64
2023/04/25 08:22:06;;;;;;;4.30;1.48;;;8.10;99.90;;;;;;5005003;28;20132;-64
2023/04/25 08:24:32;;;;;;;3.53;1.35;;;8.10;99.90;;;;;;5010978;28;20077;-64
2023/04/25 08:26:59;;;;;;;5.43;1.50;;;8.00;99.90;;;;;;5010804;28;20076;-64
2023/04/25 08:29:25;;;;;;;8.13;1.60;;;8.20;99.90;;;;;;5010876;28;20392;-64
2023/04/25 08:31:52;;;;;;;5.32;2.08;;;8.20;99.90;;;;;;4977707;28;20047;-64
2023/04/25 08:34:20;;;;;;;6.20;1.60;;;8.30;99.90;;;;;;4972052;28;20058;-63
2023/04/25 08:36:46;;;;;;;5.53;1.65;;;8.30;99.90;;;;;;4972178;28;20099;-64
2023/04/25 08:39:13;;;;;;;4.90;1.48;;;8.30;99.90;;;;;;4972239;28;20078;-64
2023/04/25 08:41:40;;;;;;;6.88;2.17;;;8.40;99.90;;;;;;4992473;28;20050;-64
2023/04/25 08:44:10;;;;;;;5.28;1.60;;;8.40;99.90;;;;;;5010831;28;20085;-63
2023/04/25 08:46:38;;;;;;;5.57;1.70;;;8.60;99.90;;;;;;5010860;28;20082;-63
2023/04/25 08:49:04;;;;;;;5.88;1.90;;;8.80;99.90;;;;;;5011191;28;20312;-64
2023/04/25 08:51:32;;;;;;;3.63;1.67;;;9.00;99.90;;;;;;5000833;28;20082;-62
2023/04/25 08:54:10;;;;;;;8.98;2.47;;;9.20;99.90;;;;;;4991067;28;20242;-63
2023/04/25 08:56:37;;;;;;;;;;;9.50;99.90;;;;;;4991936;28;20090;-64
2023/04/25 08:59:07;;;;;;;4.72;2.05;;;9.50;99.90;;;;;;4990957;28;19929;-64
2023/04/25 09:01:37;;;;;;;6.20;1.95;;;9.60;99.90;;;;;;4999880;28;20042;-63
2023/04/25 09:04:03;;;;;;;6.40;1.60;;;9.70;99.90;;;;;;5010794;28;20050;-63
2023/04/25 09:06:30;;;;;;;5.35;1.52;;;10.00;99.90;;;;;;5010247;28;20176;-65
2023/04/25 09:09:05;;;;;;;6.13;1.95;;;10.10;99.90;;;;;;5010767;28;20092;-64
2023/04/25 09:11:32;;;;;;;4.85;1.85;;;10.10;99.90;;;;;;5000526;28;20173;-65
2023/04/25 09:14:14;;;;;;;7.90;1.80;;;10.00;99.90;;;;;;4990724;28;20431;-64
2023/04/25 09:16:57;;;;;;;6.22;1.85;;;9.90;99.90;;;;;;4990936;28;20137;-63
2023/04/25 09:19:31;;;;;;;5.47;1.70;;;9.80;99.90;;;;;;4990737;28;20455;-64
2023/04/25 09:21:59;;;;;;;8.77;2.30;;;9.70;99.90;;;;;;5002599;28;20077;-63
2023/04/25 09:24:35;;;;;;;6.22;2.35;;;9.70;99.90;;;;;;5010124;28;20106;-63
2023/04/25 09:27:04;;;;;;;10.90;2.30;;;9.60;99.90;;;;;;5010553;28;20053;-64
2023/04/25 09:29:32;;;;;;;5.07;1.70;;;9.60;99.90;;;;;;4992645;28;20064;-63
2023/04/25 09:32:15;;;;;;;7.75;2.22;;;9.70;99.90;;;;;;4996972;28;20051;-64
2023/04/25 09:34:50;;;;;;;7.00;2.08;;;9.80;99.90;;;;;;4990704;28;20150;-65
2023/04/25 09:37:24;;;;;;;6.93;2.10;;;9.90;99.90;;;;;;4990481;28;20449;-62
2023/04/25 09:40:05;;;;;;;10.60;2.58;;;9.90;99.90;;;;;;4990473;28;20046;-64
2023/04/25 09:42:34;;;;;;;5.15;1.67;;;10.00;99.90;;;;;;4989425;28;20156;-63
2023/04/25 09:45:02;;;;;;;5.68;1.33;;;10.00;99.90;;;;;;5010394;28;20142;-64
2023/04/25 09:47:28;;;;;;;7.88;2.42;;;10.00;99.90;;;;;;5009955;28;20041;-63
2023/04/25 09:49:55;;;;;;;5.70;1.55;;;10.20;99.90;;;;;;5009707;28;20452;-63
2023/04/25 09:52:23;;;;;;;5.35;1.60;;;10.20;99.90;;;;;;4994392;28;20113;-65
2023/04/25 09:54:51;;;;;;;6.13;2.20;;;10.10;99.90;;;;;;4990482;28;20427;-64
2023/04/25 09:57:22;;;;;;;4.78;1.42;;;10.20;99.90;;;;;;4990463;28;20074;-64
2023/04/25 09:59:51;;;;;;;5.07;1.95;;;10.30;99.90;;;;;;4990606;28;20082;-63
2023/04/25 10:02:20;;;;;;;6.97;1.80;;;10.30;99.90;;;;;;5004478;28;20050;-63
2023/04/25 10:04:54;;;;;;;6.22;1.88;;;10.50;99.90;;;;;;5010152;28;20104;-64
2023/04/25 10:07:28;;;;;;;8.05;2.40;;;10.70;99.90;;;;;;4992650;28;20056;-64
2023/04/25 10:10:00;;;;;;;6.35;2.40;;;10.80;99.90;;;;;;5010338;28;20137;-65
2023/04/25 10:12:26;;;;;;;4.72;2.15;;;10.70;99.90;;;;;;4979295;28;20382;-64
2023/04/25 10:14:54;;;;;;;7.45;2.88;;;10.70;99.90;;;;;;4993891;28;20407;-64
2023/04/25 10:17:21;;;;;;;7.00;2.00;;;10.70;99.90;;;;;;4994070;28;20058;-64
2023/04/25 10:19:47;;;;;;;5.80;2.00;;;10.70;99.90;;;;;;4993862;28;20125;-64
2023/04/25 10:22:18;;;;;;;5.22;1.83;;;10.70;99.90;;;;;;5007011;28;20397;-64
2023/04/25 10:24:46;;;;;;;7.60;1.90;;;10.50;99.90;;;;;;5013240;28;20069;-63
2023/04/25 10:27:12;;;;;;;8.50;2.17;;;10.10;99.90;;;;;;5012418;28;20085;-64
2023/04/25 10:29:41;;;;;;;7.93;2.38;;;9.40;99.90;;;;;;5013701;28;20053;-66
2023/04/25 10:32:08;;;;;;;4.03;1.75;;;9.20;99.90;;;;;;4999095;28;20378;-65
2023/04/25 10:34:46;;;;;;;4.10;1.60;;;8.80;99.90;;;;;;4993358;28;20054;-66
2023/04/25 10:37:13;;;;;;;4.93;1.73;;;8.70;99.90;;;;;;4993987;28;20054;-65
2023/04/25 10:39:43;;;;;;;6.10;2.55;;;8.80;99.90;;;;;;4993488;28;20082;-65
2023/04/25 10:42:09;;;;;;;3.95;2.00;;;9.10;99.90;;;;;;5006513;28;20133;-65
2023/04/25 10:45:04;;;;;;;3.78;1.80;;;9.20;99.90;;;;;;5013133;28;20103;-65
2023/04/25 10:47:42;;;;;;;4.70;1.85;;;9.40;99.90;;;;;;5013209;28;20104;-65
2023/04/25 10:50:09;;;;;;;6.45;2.15;;;9.30;99.90;;;;;;5012851;28;20073;-65
2023/04/25 10:52:38;;;;;;;9.13;2.40;;;9.30;99.90;;;;;;4995145;28;20112;-65
2023/04/25 10:55:05;;;;;;;4.97;2.33;;;9.20;99.90;;;;;;4975900;28;20081;-65
2023/04/25 10:57:43;;;;;;;9.40;2.55;;;9.30;99.90;;;;;;4993224;28;20383;-65
2023/04/25 11:00:15;;;;;;;6.80;2.22;;;9.40;99.90;;;;;;4976161;28;20050;-65
2023/04/25 11:02:42;;;;;;;;;;;9.50;99.90;;;;;;4992870;28;20050;-65
2023/04/25 11:05:10;;;;;;;10.40;4.00;;;9.40;99.90;;;;;;5012710;28;19935;-65
2023/04/25 11:07:50;;;;;;;7.15;2.25;;;9.50;99.90;;;;;;5012780;28;20142;-64
2023/04/25 11:10:27;;;;;;;6.78;2.05;;;9.60;99.90;;;;;;5012862;28;20078;-65
2023/04/25 11:12:54;;;;;;;6.80;2.15;;;9.80;99.90;;;;;;5011190;28;20486;-65
2023/04/25 11:15:20;;;;;;;7.13;2.78;;;9.90;99.90;;;;;;5012584;28;20439;-65
2023/04/25 11:17:46;;;;;;;7.10;2.28;;;10.00;99.90;;;;;;5012354;28;20084;-66
2023/04/25 11:20:15;;;;;;;7.35;2.42;;;10.20;99.90;;;;;;4995160;28;20125;-64
2023/04/25 11:22:44;;;;;;;6.50;1.85;;;10.40;99.90;;;;;;4994653;28;20198;-65
2023/04/25 11:25:13;;;;;;;8.65;1.83;;;10.30;99.90;;;;;;4992574;28;20141;-65
2023/04/25 11:28:01;;;;;;;5.07;1.63;;;10.10;99.90;;;;;;4971577;28;20133;-66
2023/04/25 11:30:28;;;;;;;4.25;1.88;;;10.20;99.90;;;;;;4988098;28;20093;-66
2023/04/25 11:33:03;;;;;;;5.93;2.33;;;10.20;99.90;;;;;;4991047;28;20362;-64
2023/04/25 11:35:29;;;;;;;7.47;1.83;;;10.50;99.90;;;;;;4991992;28;20466;-64
2023/04/25 11:37:55;;;;;;;5.88;1.95;;;10.60;99.90;;;;;;4992503;28;20142;-65
2023/04/25 11:40:22;;;;;;;6.93;1.90;;;10.90;99.90;;;;;;4992638;28;20097;-66
2023/04/25 11:42:48;;;;;;;5.20;1.60;;;11.00;99.90;;;;;;4970944;28;20078;-65
2023/04/25 11:45:14;;;;;;;4.82;1.60;;;10.90;99.90;;;;;;4973304;28;20142;-65
2023/04/25 11:47:41;;;;;;;6.18;1.98;;;10.70;99.90;;;;;;4972810;28;20493;-64
2023/04/25 11:50:08;;;;;;;5.15;2.17;;;10.70;99.90;;;;;;4972833;28;20082;-65
2023/04/25 11:52:45;;;;;;;5.45;1.80;;;10.90;99.90;;;;;;4988168;28;20135;-66
2023/04/25 11:55:17;;;;;;;4.68;2.05;;;11.10;99.90;;;;;;4992512;28;20046;-64
2023/04/25 11:57:49;;;;;;;7.45;2.20;;;10.70;99.90;;;;;;4991984;28;20347;-65
2023/04/25 12:00:25;;;;;;;7.05;2.72;;;10.40;99.90;;;;;;4992070;28;20129;-66
2023/04/25 12:02:53;;;;;;;4.10;1.80;;;9.70;99.90;;;;;;4973264;28;20093;-65
2023/04/25 12:05:27;;;;;;;4.00;1.90;;;9.50;99.90;;;;;;4972076;28;20043;-66
2023/04/25 12:07:53;;;;;;;4.88;1.88;;;9.20;99.90;;;;;;4971383;28;20127;-64
2023/04/25 12:10:20;;;;;;;4.82;1.60;;;9.00;99.90;;;;;;4972543;28;20055;-64
2023/04/25 12:12:47;;;;;;;7.10;1.60;;;9.00;99.90;;;;;;4989134;28;20058;-65
2023/04/25 12:15:15;;;;;;;6.97;1.95;;;9.00;99.90;;;;;;4991753;28;20126;-65
2023/04/25 12:17:45;;;;;;;4.63;1.95;;;9.00;99.90;;;;;;4991797;28;20081;-65
2023/04/25 12:20:20;;;;;;;5.22;1.77;;;9.30;99.90;;;;;;4991237;28;20088;-66
2023/04/25 12:22:47;;;;;;;5.38;2.13;;;9.70;99.90;;;;;;4973700;28;20085;-65
2023/04/25 12:25:39;;;;;;;9.05;2.97;;;10.10;99.90;;;;;;5007925;28;20093;-66
2023/04/25 12:28:19;;;;;;;4.80;1.90;;;10.20;99.90;;;;;;5011098;28;20070;-65
2023/04/25 12:31:03;;;;;;;3.08;1.52;;;9.90;99.90;;;;;;5009481;28;20107;-65
2023/04/25 12:33:31;;;;;;;6.75;1.67;;;9.60;99.90;;;;;;4973626;28;20047;-65
2023/04/25 12:35:59;;;;;;;4.70;1.98;;;9.70;99.90;;;;;;4991209;28;20105;-65
2023/04/25 12:38:28;;;;;;;4.00;1.60;;;10.00;99.90;;;;;;4991274;28;20082;-66
2023/04/25 12:40:55;;;;;;;3.65;1.42;;;10.00;99.90;;;;;;4992986;28;20077;-67
2023/04/25 12:43:21;;;;;;;5.72;1.58;;;9.90;99.90;;;;;;5010940;28;20572;-66
2023/04/25 12:45:50;;;;;;;5.07;1.88;;;10.20;99.90;;;;;;5011091;28;20057;-65
2023/04/25 12:48:17;;;;;;;5.78;1.63;;;10.20;99.90;;;;;;5010677;28;20075;-66
2023/04/25 12:50:43;;;;;;;4.57;2.22;;;10.20;99.90;;;;;;5009736;28;20046;-65
2023/04/25 12:53:11;;;;;;;5.88;2.35;;;10.10;99.90;;;;;;4991281;28;20347;-65
2023/04/25 12:55:37;;;;;;;9.05;3.35;;;10.10;99.90;;;;;;4991285;28;20054;-66